createdAt,value
2023-03-13T00:02:03.423Z,3.03
2023-03-13T00:04:30.907Z,3.10
2023-03-13T00:06:58.752Z,3.15
2023-03-13T00:09:27.560Z,3.08
2023-03-13T00:11:54.958Z,3.10
2023-03-13T00:14:22.396Z,2.60
2023-03-13T00:16:49.860Z,2.65
2023-03-13T00:19:17.331Z,2.60
2023-03-13T00:21:44.693Z,2.63
2023-03-13T00:24:12.519Z,3.28
2023-03-13T00:26:41.345Z,2.88
2023-03-13T00:29:08.735Z,3.00
2023-03-13T00:31:36.800Z,2.60
2023-03-13T00:34:04.585Z,2.30
2023-03-13T00:36:34.085Z,3.38
2023-03-13T00:39:04.308Z,2.58
2023-03-13T00:41:32.958Z,2.70
2023-03-13T00:44:01.797Z,3.58
2023-03-13T00:46:31.807Z,3.00
2023-03-13T00:48:59.284Z,3.40
2023-03-13T00:51:28.097Z,3.08
2023-03-13T00:53:56.870Z,2.67
2023-03-13T00:56:24.217Z,2.60
2023-03-13T00:58:51.833Z,2.58
2023-03-13T01:01:22.878Z,2.63
2023-03-13T01:03:52.734Z,2.13
2023-03-13T01:06:22.199Z,2.42
2023-03-13T01:08:50.263Z,2.38
2023-03-13T01:11:19.788Z,2.63
2023-03-13T01:13:48.015Z,2.10
2023-03-13T01:16:17.419Z,3.22
2023-03-13T01:18:49.437Z,2.55
2023-03-13T01:21:19.726Z,2.67
2023-03-13T01:23:47.466Z,2.50
2023-03-13T01:26:15.814Z,2.45
2023-03-13T01:28:43.622Z,3.35
2023-03-13T01:31:12.695Z,3.75
2023-03-13T01:33:40.157Z,3.47
2023-03-13T01:36:09.975Z,3.70
2023-03-13T01:38:37.952Z,2.80
2023-03-13T01:41:06.957Z,2.83
2023-03-13T01:46:10.702Z,2.15
2023-03-13T01:49:03.358Z,2.95
2023-03-13T01:51:38.925Z,2.30
2023-03-13T01:54:09.939Z,2.72
2023-03-13T01:56:42.818Z,2.28
2023-03-13T01:59:14.563Z,2.22
2023-03-13T02:01:44.163Z,2.67
2023-03-13T02:04:12.714Z,2.83
2023-03-13T02:06:46.108Z,2.92
2023-03-13T02:09:18.599Z,2.20
2023-03-13T02:11:52.661Z,2.63
2023-03-13T02:14:23.445Z,2.35
2023-03-13T02:16:52.585Z,2.72
2023-03-13T02:19:27.974Z,2.17
2023-03-13T02:22:09.695Z,2.30
2023-03-13T02:24:45.603Z,2.17
2023-03-13T02:27:14.386Z,3.00
2023-03-13T02:29:43.902Z,2.13
2023-03-13T02:32:11.801Z,3.53
2023-03-13T02:34:41.445Z,2.40
2023-03-13T02:37:12.800Z,2.53
2023-03-13T02:39:45.753Z,2.30
2023-03-13T02:42:17.833Z,2.38
2023-03-13T02:44:47.029Z,2.45
2023-03-13T02:47:18.569Z,2.60
2023-03-13T02:49:46.344Z,2.25
2023-03-13T02:52:17.481Z,2.63
2023-03-13T02:54:49.534Z,3.15
2023-03-13T02:57:18.875Z,2.55
2023-03-13T02:59:46.342Z,2.63
2023-03-13T03:02:13.956Z,2.72
2023-03-13T03:04:41.560Z,2.35
2023-03-13T03:07:11.233Z,2.13
2023-03-13T03:09:38.700Z,2.25
2023-03-13T03:12:11.315Z,2.38
2023-03-13T03:14:40.569Z,2.30
2023-03-13T03:17:08.176Z,2.90
2023-03-13T03:19:35.554Z,2.42
2023-03-13T03:22:03.130Z,2.72
2023-03-13T03:24:33.262Z,2.58
2023-03-13T03:27:00.683Z,2.10
2023-03-13T03:29:34.145Z,2.65
2023-03-13T03:32:03.192Z,2.25
2023-03-13T03:34:31.543Z,1.98
2023-03-13T03:36:59.765Z,2.30
2023-03-13T03:39:29.002Z,2.72
2023-03-13T03:41:56.773Z,2.60
2023-03-13T03:44:24.972Z,2.60
2023-03-13T03:46:58.545Z,2.33
2023-03-13T03:49:29.441Z,2.95
2023-03-13T03:51:57.104Z,3.13
2023-03-13T03:54:30.481Z,2.35
2023-03-13T03:56:59.021Z,2.17
2023-03-13T03:59:26.746Z,1.70
2023-03-13T04:02:12.545Z,2.22
2023-03-13T04:04:43.176Z,1.95
2023-03-13T04:07:15.104Z,1.80
2023-03-13T04:09:42.645Z,1.48
2023-03-13T04:12:15.275Z,1.90
2023-03-13T04:14:46.035Z,1.90
2023-03-13T04:17:15.757Z,1.88
2023-03-13T04:19:46.059Z,2.05
2023-03-13T04:22:13.794Z,1.77
2023-03-13T04:24:47.495Z,2.03
2023-03-13T04:27:15.071Z,1.80
2023-03-13T04:29:43.885Z,2.63
2023-03-13T04:32:28.396Z,2.25
2023-03-13T04:35:03.258Z,1.85
2023-03-13T04:37:42.229Z,2.22
2023-03-13T04:40:15.748Z,1.90
2023-03-13T04:43:15.491Z,2.10
2023-03-13T04:45:51.455Z,1.75
2023-03-13T04:48:41.877Z,2.05
2023-03-13T04:51:30.252Z,1.55
2023-03-13T04:54:16.373Z,2.10
2023-03-13T04:56:57.696Z,2.10
2023-03-13T04:59:37.090Z,1.88
2023-03-13T05:02:30.838Z,1.98
2023-03-13T05:05:11.389Z,2.13
2023-03-13T05:07:55.197Z,2.05
2023-03-13T05:10:31.903Z,1.80
2023-03-13T05:13:09.823Z,2.15
2023-03-13T05:15:53.967Z,1.80
2023-03-13T05:18:47.551Z,2.05
2023-03-13T05:21:33.731Z,1.60
2023-03-13T05:24:16.977Z,1.48
2023-03-13T05:27:07.187Z,2.10
2023-03-13T05:29:47.038Z,1.77
2023-03-13T05:32:19.624Z,2.05
2023-03-13T05:35:10.107Z,1.90
2023-03-13T05:37:48.967Z,1.80
2023-03-13T05:40:38.055Z,2.03
2023-03-13T05:43:24.602Z,1.70
2023-03-13T05:46:08.998Z,2.75
2023-03-13T05:48:56.723Z,2.05
2023-03-13T05:51:44.578Z,2.17
2023-03-13T05:54:41.346Z,2.17
2023-03-13T05:57:46.599Z,1.92
2023-03-13T06:00:32.865Z,2.53
2023-03-13T06:03:32.382Z,2.15
2023-03-13T06:06:00.677Z,2.03
2023-03-13T06:08:36.306Z,1.77
2023-03-13T06:11:03.915Z,2.30
2023-03-13T06:13:34.479Z,1.90
2023-03-13T06:16:09.309Z,2.00
2023-03-13T06:18:43.730Z,2.05
2023-03-13T06:21:11.552Z,1.88
2023-03-13T06:23:39.159Z,2.38
2023-03-13T06:26:06.654Z,1.92
2023-03-13T06:28:35.583Z,2.05
2023-03-13T06:31:04.464Z,2.67
2023-03-13T06:36:01.318Z,2.65
2023-03-13T06:38:29.785Z,2.15
2023-03-13T06:40:57.716Z,2.42
2023-03-13T06:43:25.790Z,2.60
2023-03-13T06:45:54.589Z,2.70
2023-03-13T06:50:50.717Z,2.38
2023-03-13T06:53:20.671Z,2.08
2023-03-13T06:55:49.223Z,2.60
2023-03-13T06:58:31.148Z,2.97
2023-03-13T07:01:06.826Z,2.78
2023-03-13T07:03:34.810Z,2.72
2023-03-13T07:06:02.402Z,2.38
2023-03-13T07:08:30.091Z,2.13
2023-03-13T07:11:00.522Z,1.95
2023-03-13T07:13:28.332Z,1.90
2023-03-13T07:15:56.354Z,2.40
2023-03-13T07:18:25.314Z,2.53
2023-03-13T07:20:54.327Z,2.50
2023-03-13T07:23:22.569Z,1.73
2023-03-13T07:25:54.724Z,0.80
2023-03-13T07:28:22.672Z,1.10
2023-03-13T07:30:50.753Z,0.80
2023-03-13T07:33:18.609Z,0.80
2023-03-13T07:35:51.898Z,0.90
2023-03-13T07:38:20.338Z,0.60
2023-03-13T07:40:49.391Z,1.05
2023-03-13T07:43:16.971Z,1.08
2023-03-13T07:45:52.198Z,1.13
2023-03-13T07:48:20.181Z,0.93
2023-03-13T07:50:48.029Z,1.00
2023-03-13T07:53:21.256Z,0.90
2023-03-13T07:55:53.372Z,0.90
2023-03-13T07:58:21.454Z,0.70
2023-03-13T08:00:49.374Z,1.10
2023-03-13T08:03:16.845Z,0.93
2023-03-13T08:05:44.426Z,0.80
2023-03-13T08:08:12.186Z,1.20
2023-03-13T08:10:41.064Z,1.00
2023-03-13T08:13:08.895Z,0.90
2023-03-13T08:15:36.979Z,1.20
2023-03-13T08:18:04.757Z,1.00
2023-03-13T08:20:32.170Z,1.40
2023-03-13T08:22:59.653Z,0.90
2023-03-13T08:25:27.225Z,1.00
2023-03-13T08:27:56.348Z,1.23
2023-03-13T08:30:23.816Z,1.10
2023-03-13T08:32:51.314Z,1.10
2023-03-13T08:35:18.760Z,1.20
2023-03-13T08:37:46.248Z,1.00
2023-03-13T08:40:14.094Z,1.02
2023-03-13T08:42:41.495Z,1.13
2023-03-13T08:45:10.918Z,1.23
2023-03-13T08:47:38.450Z,1.30
2023-03-13T08:50:06.765Z,1.10
2023-03-13T08:52:34.253Z,0.90
2023-03-13T08:55:01.754Z,1.50
2023-03-13T08:57:29.250Z,1.23
2023-03-13T08:59:56.647Z,1.20
2023-03-13T09:02:25.557Z,1.15
2023-03-13T09:04:53.008Z,1.65
2023-03-13T09:07:20.492Z,1.08
2023-03-13T09:09:47.936Z,1.33
2023-03-13T09:12:29.623Z,1.10
2023-03-13T09:14:58.114Z,0.90
2023-03-13T09:17:26.937Z,1.30
2023-03-13T09:20:00.547Z,1.30
2023-03-13T09:22:28.444Z,1.40
2023-03-13T09:24:55.834Z,1.13
2023-03-13T09:27:23.418Z,1.25
2023-03-13T09:29:50.903Z,1.20
2023-03-13T09:32:20.460Z,1.50
2023-03-13T09:34:49.328Z,1.25
2023-03-13T09:37:16.850Z,1.20
2023-03-13T09:39:44.318Z,1.20
2023-03-13T09:42:16.650Z,1.17
2023-03-13T09:44:48.209Z,1.10
2023-03-13T09:47:22.602Z,1.27
2023-03-13T09:49:54.387Z,1.67
2023-03-13T09:52:24.258Z,0.90
2023-03-13T09:54:56.111Z,1.10
2023-03-13T09:57:32.028Z,1.35
2023-03-13T10:00:07.108Z,1.35
2023-03-13T10:02:37.142Z,1.20
2023-03-13T10:05:16.751Z,1.00
2023-03-13T10:07:44.534Z,1.23
2023-03-13T10:10:15.681Z,1.00
2023-03-13T10:12:46.103Z,1.42
2023-03-13T10:15:32.761Z,1.23
2023-03-13T10:18:05.957Z,1.35
2023-03-13T10:20:36.008Z,1.23
2023-03-13T10:23:07.850Z,1.40
2023-03-13T10:25:38.330Z,2.25
2023-03-13T10:28:06.966Z,1.50
2023-03-13T10:30:36.402Z,2.10
2023-03-13T10:33:20.051Z,1.42
2023-03-13T10:36:01.643Z,1.52
2023-03-13T10:38:29.760Z,1.60
2023-03-13T10:40:58.917Z,1.60
2023-03-13T10:43:27.567Z,1.38
2023-03-13T10:45:55.596Z,1.75
2023-03-13T10:48:25.379Z,1.50
2023-03-13T10:51:01.165Z,1.92
2023-03-13T10:53:34.078Z,1.85
2023-03-13T10:56:10.548Z,1.70
2023-03-13T10:58:42.983Z,1.50
2023-03-13T11:01:17.474Z,1.55
2023-03-13T11:03:46.368Z,1.48
2023-03-13T11:06:28.550Z,1.70
2023-03-13T11:09:05.334Z,1.70
2023-03-13T11:11:44.323Z,1.73
2023-03-13T11:14:16.333Z,1.83
2023-03-13T11:16:49.438Z,1.70
2023-03-13T11:19:38.481Z,1.60
2023-03-13T11:22:16.895Z,1.65
2023-03-13T11:24:49.316Z,1.58
2023-03-13T11:27:26.383Z,1.50
2023-03-13T11:30:13.268Z,1.70
2023-03-13T11:32:43.620Z,1.63
2023-03-13T11:35:21.743Z,1.98
2023-03-13T11:37:56.285Z,1.67
2023-03-13T11:40:29.999Z,1.75
2023-03-13T11:43:24.472Z,1.42
2023-03-13T11:46:10.602Z,1.85
2023-03-13T11:48:55.624Z,1.80
2023-03-13T11:51:31.892Z,1.90
2023-03-13T11:54:34.532Z,1.80
2023-03-13T11:57:07.326Z,2.10
2023-03-13T11:59:44.546Z,1.50
2023-03-13T12:02:21.349Z,1.60
2023-03-13T12:04:55.563Z,1.38
2023-03-13T12:07:30.024Z,1.27
2023-03-13T12:10:01.516Z,1.20
2023-03-13T12:12:38.521Z,1.52
2023-03-13T12:15:19.399Z,1.30
2023-03-13T12:17:51.833Z,1.27
2023-03-13T12:20:25.435Z,1.80
2023-03-13T12:23:03.846Z,1.40
2023-03-13T12:25:39.291Z,1.63
2023-03-13T12:28:24.110Z,1.38
2023-03-13T12:31:00.438Z,1.20
2023-03-13T12:33:34.865Z,1.33
2023-03-13T12:36:09.290Z,1.60
2023-03-13T12:38:41.219Z,1.50
2023-03-13T12:41:21.977Z,1.60
2023-03-13T12:44:07.350Z,1.60
2023-03-13T12:46:41.439Z,1.50
2023-03-13T12:49:53.234Z,1.33
2023-03-13T12:52:46.726Z,1.60
2023-03-13T12:55:29.389Z,1.40
2023-03-13T12:58:10.617Z,1.45
2023-03-13T13:00:40.899Z,1.70
2023-03-13T13:03:19.598Z,1.42
2023-03-13T13:06:03.968Z,1.40
2023-03-13T13:08:36.534Z,1.42
2023-03-13T13:11:43.759Z,1.50
2023-03-13T13:14:54.057Z,1.60
2023-03-13T13:17:30.317Z,1.55
2023-03-13T13:19:58.173Z,1.83
2023-03-13T13:22:46.545Z,1.67
2023-03-13T13:25:31.326Z,1.52
2023-03-13T13:28:12.520Z,1.60
2023-03-13T13:30:40.216Z,1.80
2023-03-13T13:33:44.478Z,1.58
2023-03-13T13:36:47.296Z,1.30
2023-03-13T13:39:37.578Z,1.40
2023-03-13T13:42:45.475Z,1.63
2023-03-13T13:45:35.680Z,1.48
2023-03-13T13:48:31.045Z,1.20
2023-03-13T13:51:25.079Z,1.20
2023-03-13T13:53:59.790Z,1.35
2023-03-13T13:56:47.078Z,1.58
2023-03-13T13:59:41.030Z,1.63
2023-03-13T14:02:19.243Z,1.48
2023-03-13T14:04:55.854Z,1.85
2023-03-13T14:07:32.152Z,1.52
2023-03-13T14:10:15.043Z,1.70
2023-03-13T14:12:47.635Z,1.65
2023-03-13T14:15:19.079Z,1.35
2023-03-13T14:17:48.712Z,1.33
2023-03-13T14:20:27.263Z,1.73
2023-03-13T14:23:00.026Z,1.60
2023-03-13T14:25:42.780Z,2.10
2023-03-13T14:28:19.197Z,1.60
2023-03-13T14:30:48.535Z,1.52
2023-03-13T14:33:16.217Z,1.60
2023-03-13T14:35:44.309Z,1.65
2023-03-13T14:38:20.049Z,1.52
2023-03-13T14:40:49.969Z,1.70
2023-03-13T14:43:22.328Z,1.13
2023-03-13T14:45:50.692Z,1.50
2023-03-13T14:48:22.862Z,1.58
2023-03-13T14:50:59.618Z,1.42
2023-03-13T14:53:36.406Z,1.50
2023-03-13T14:56:14.350Z,1.30
2023-03-13T14:58:42.068Z,1.52
2023-03-13T15:01:22.312Z,1.30
2023-03-13T15:03:49.852Z,1.60
2023-03-13T15:06:20.101Z,1.15
2023-03-13T15:08:49.549Z,1.20
2023-03-13T15:11:39.499Z,1.27
2023-03-13T15:14:38.823Z,1.17
2023-03-13T15:17:14.232Z,1.20
2023-03-13T15:19:42.518Z,1.10
2023-03-13T15:24:41.724Z,0.93
2023-03-13T15:27:18.338Z,1.13
2023-03-13T15:29:46.598Z,1.20
2023-03-13T15:32:22.089Z,0.98
2023-03-13T15:34:49.736Z,1.00
2023-03-13T15:37:17.163Z,1.20
2023-03-13T15:39:44.740Z,1.27
2023-03-13T15:42:12.214Z,1.27
2023-03-13T15:44:41.073Z,1.10
2023-03-13T15:47:10.746Z,1.50
2023-03-13T15:49:38.809Z,1.02
2023-03-13T15:52:17.566Z,1.17
2023-03-13T15:54:45.099Z,1.55
2023-03-13T15:57:15.446Z,1.23
2023-03-13T15:59:44.814Z,1.10
2023-03-13T16:02:15.364Z,1.25
2023-03-13T16:04:43.233Z,1.38
2023-03-13T16:07:11.518Z,1.10
2023-03-13T16:09:39.252Z,1.25
2023-03-13T16:12:07.583Z,0.90
2023-03-13T16:14:35.580Z,1.10
2023-03-13T16:17:13.245Z,1.33
2023-03-13T16:19:40.984Z,1.30
2023-03-13T16:22:08.413Z,0.82
2023-03-13T16:24:36.097Z,1.20
2023-03-13T16:27:11.862Z,1.52
2023-03-13T16:29:39.554Z,1.00
2023-03-13T16:32:13.404Z,1.10
2023-03-13T16:34:41.278Z,0.90
2023-03-13T16:37:13.875Z,1.15
2023-03-13T16:39:41.782Z,1.02
2023-03-13T16:42:09.900Z,1.30
2023-03-13T16:47:15.600Z,1.05
2023-03-13T16:49:43.417Z,1.08
2023-03-13T16:52:13.779Z,1.30
2023-03-13T16:54:41.453Z,0.95
2023-03-13T16:57:10.081Z,1.00
2023-03-13T16:59:37.477Z,1.45
2023-03-13T17:02:07.613Z,1.10
2023-03-13T17:04:36.535Z,1.20
2023-03-13T17:07:10.445Z,1.10
2023-03-13T17:09:37.937Z,0.88
2023-03-13T17:12:05.562Z,1.30
2023-03-13T17:14:33.012Z,1.00
2023-03-13T17:17:00.479Z,1.02
2023-03-13T17:19:28.634Z,1.10
2023-03-13T17:24:24.815Z,0.90
2023-03-13T17:26:52.227Z,0.90
2023-03-13T17:29:19.713Z,1.35
2023-03-13T17:31:47.150Z,1.38
2023-03-13T17:34:16.669Z,1.30
2023-03-13T17:36:45.360Z,0.90
2023-03-13T17:39:14.881Z,1.00
2023-03-13T17:41:42.392Z,1.20
2023-03-13T17:44:09.862Z,3.25
2023-03-13T17:46:41.009Z,1.27
2023-03-13T17:49:11.897Z,1.33
2023-03-13T17:51:41.488Z,1.45
2023-03-13T17:54:09.217Z,1.40
2023-03-13T17:56:40.304Z,1.20
2023-03-13T17:59:12.291Z,1.30
2023-03-13T18:01:39.796Z,1.00
2023-03-13T18:04:07.466Z,1.98
2023-03-13T18:06:39.209Z,6.80
2023-03-13T18:09:11.938Z,1.00
2023-03-13T18:11:40.823Z,1.00
2023-03-13T18:14:08.562Z,1.25
2023-03-13T18:16:40.534Z,1.38
2023-03-13T18:19:15.110Z,1.25
2023-03-13T18:21:43.688Z,1.00
2023-03-13T18:24:12.528Z,1.13
2023-03-13T18:26:43.037Z,0.77
2023-03-13T18:29:15.108Z,1.20
2023-03-13T18:31:43.773Z,1.17
2023-03-13T18:34:11.869Z,1.10
2023-03-13T18:36:39.381Z,1.13
2023-03-13T18:39:07.058Z,1.23
2023-03-13T18:41:35.983Z,0.90
2023-03-13T18:44:05.229Z,1.00
2023-03-13T18:46:34.697Z,0.95
2023-03-13T18:49:02.243Z,0.95
2023-03-13T18:51:30.724Z,1.10
2023-03-13T18:53:58.283Z,1.10
2023-03-13T18:56:28.388Z,1.00
2023-03-13T18:58:56.632Z,1.33
2023-03-13T19:03:54.098Z,1.02
2023-03-13T19:06:23.812Z,0.95
2023-03-13T19:08:53.450Z,0.90
2023-03-13T19:11:22.980Z,1.00
2023-03-13T19:14:00.967Z,4.80
2023-03-13T19:16:35.080Z,1.80
2023-03-13T19:19:02.815Z,1.52
2023-03-13T19:21:31.537Z,1.73
2023-03-13T19:23:59.128Z,1.45
2023-03-13T19:26:29.775Z,1.77
2023-03-13T19:28:57.479Z,1.80
2023-03-13T19:31:28.414Z,1.50
2023-03-13T19:33:57.381Z,1.38
2023-03-13T19:36:36.351Z,1.55
2023-03-13T19:39:11.126Z,1.63
2023-03-13T19:41:38.558Z,1.50
2023-03-13T19:44:06.017Z,1.30
2023-03-13T19:46:33.850Z,1.50
2023-03-13T19:49:03.412Z,1.40
2023-03-13T19:51:31.836Z,1.05
2023-03-13T19:53:59.414Z,1.23
2023-03-13T19:56:29.557Z,5.95
2023-03-13T19:58:58.979Z,10.35
2023-03-13T20:01:27.012Z,8.40
2023-03-13T20:03:54.509Z,6.60
2023-03-13T20:06:24.923Z,2.20
2023-03-13T20:08:54.307Z,3.17
2023-03-13T20:11:21.938Z,2.70
2023-03-13T20:13:49.624Z,2.25
2023-03-13T20:16:17.228Z,1.58
2023-03-13T20:18:47.518Z,1.88
2023-03-13T20:21:16.476Z,1.92
2023-03-13T20:23:47.490Z,2.28
2023-03-13T20:26:19.016Z,2.92
2023-03-13T20:28:48.852Z,3.05
2023-03-13T20:31:18.063Z,3.13
2023-03-13T20:33:45.943Z,2.17
2023-03-13T20:36:15.560Z,2.55
2023-03-13T20:38:44.876Z,2.40
2023-03-13T20:41:12.680Z,1.92
2023-03-13T20:43:40.144Z,2.15
2023-03-13T20:46:08.162Z,2.00
2023-03-13T20:48:38.950Z,2.05
2023-03-13T20:51:07.566Z,1.95
2023-03-13T20:56:06.887Z,2.55
2023-03-13T20:58:35.070Z,1.52
2023-03-13T21:01:03.860Z,0.82
2023-03-13T21:03:35.095Z,0.90
2023-03-13T21:06:09.272Z,0.93
2023-03-13T21:08:38.938Z,1.08
2023-03-13T21:13:40.026Z,0.73
2023-03-13T21:16:08.233Z,0.65
2023-03-13T21:18:36.113Z,1.02
2023-03-13T21:21:04.842Z,1.10
2023-03-13T21:23:32.707Z,1.05
2023-03-13T21:26:00.705Z,1.00
2023-03-13T21:28:30.053Z,1.10
2023-03-13T21:30:57.671Z,0.90
2023-03-13T21:33:25.598Z,1.10
2023-03-13T21:35:53.078Z,1.13
2023-03-13T21:38:20.561Z,0.80
2023-03-13T21:40:48.028Z,1.30
2023-03-13T21:43:15.410Z,0.80
2023-03-13T21:45:44.153Z,1.10
2023-03-13T21:50:38.810Z,1.48
2023-03-13T21:53:06.282Z,0.93
2023-03-13T21:55:35.359Z,1.00
2023-03-13T21:58:02.895Z,1.23
2023-03-13T22:00:32.703Z,1.30
2023-03-13T22:03:02.273Z,1.83
2023-03-13T22:07:57.067Z,1.40
2023-03-13T22:10:24.540Z,0.90
2023-03-13T22:12:51.964Z,1.33
2023-03-13T22:15:19.451Z,0.90
2023-03-13T22:17:47.019Z,1.40
2023-03-13T22:20:16.196Z,1.60
2023-03-13T22:22:43.739Z,3.03
2023-03-13T22:25:11.189Z,2.28
2023-03-13T22:27:38.610Z,2.97
2023-03-13T22:30:07.516Z,1.20
2023-03-13T22:32:34.959Z,1.50
2023-03-13T22:35:02.566Z,1.58
2023-03-13T22:37:31.450Z,1.77
2023-03-13T22:39:58.851Z,1.60
2023-03-13T22:42:26.895Z,1.98
2023-03-13T22:44:55.553Z,1.95
2023-03-13T22:47:24.647Z,2.95
2023-03-13T22:49:53.475Z,5.35
2023-03-13T22:52:22.149Z,4.38
2023-03-13T22:57:18.671Z,2.70
2023-03-13T22:59:46.147Z,2.83
2023-03-13T23:02:13.506Z,1.58
2023-03-13T23:04:40.950Z,1.20
2023-03-13T23:07:08.352Z,1.05
2023-03-13T23:09:35.718Z,0.90
2023-03-13T23:12:04.780Z,1.42
2023-03-13T23:14:32.223Z,1.08
2023-03-13T23:17:00.117Z,1.55
2023-03-13T23:19:27.509Z,1.20
2023-03-13T23:21:55.034Z,1.23
2023-03-13T23:24:22.460Z,1.30
2023-03-13T23:26:49.892Z,1.10
2023-03-13T23:29:18.785Z,1.20
2023-03-13T23:31:46.131Z,1.92
2023-03-13T23:34:13.709Z,1.25
2023-03-13T23:36:41.189Z,1.20
2023-03-13T23:39:08.618Z,1.02
2023-03-13T23:41:36.695Z,1.00
2023-03-13T23:44:04.256Z,1.02
2023-03-13T23:46:33.069Z,1.23
2023-03-13T23:49:01.602Z,1.05
2023-03-13T23:51:28.954Z,1.15
2023-03-13T23:53:56.465Z,1.25
2023-03-13T23:56:25.317Z,0.85
2023-03-13T23:59:18.293Z,0.82
